Time;durP1;ratioP1;P1;durP2;ratioP2;P2;SDS_P1;SDS_P2;PMS_P1;PMS_P2;Temp;Humidity;BMP_temperature;BMP_pressure;BME280_temperature;BME280_humidity;BME280_pressure;Samples;Min_cycle;Max_cycle;Signal;HPM_P1;HPM_P2
2022/09/09 00:02:17;;;;;;;7.43;4.25;;;19.90;91.60;;;;;;4991095;28;20041;-68
2022/09/09 00:05:01;;;;;;;6.82;4.63;;;19.90;91.70;;;;;;4973675;28;20050;-68
2022/09/09 00:07:46;;;;;;;7.95;4.28;;;19.90;91.70;;;;;;4980284;28;20494;-68
2022/09/09 00:10:27;;;;;;;9.85;4.90;;;19.90;91.60;;;;;;4980400;28;20394;-68
2022/09/09 00:13:08;;;;;;;9.73;4.75;;;19.90;91.50;;;;;;4986122;28;20030;-68
2022/09/09 00:15:50;;;;;;;12.05;4.28;;;19.90;91.60;;;;;;4988217;28;20030;-68
2022/09/09 00:18:47;;;;;;;9.13;5.00;;;19.90;91.60;;;;;;4980138;28;20035;-68
2022/09/09 00:21:17;;;;;;;7.80;5.10;;;19.90;91.50;;;;;;4973892;28;20041;-68
2022/09/09 00:23:52;;;;;;;9.05;5.13;;;19.80;91.70;;;;;;4983243;28;20039;-67
2022/09/09 00:26:49;;;;;;;12.55;5.90;;;19.80;91.50;;;;;;4979914;28;20042;-67
2022/09/09 00:29:41;;;;;;;12.55;5.68;;;19.90;91.40;;;;;;4976475;28;20037;-68
2022/09/09 00:32:18;;;;;;;7.68;5.45;;;19.80;91.30;;;;;;4975526;28;20030;-68
2022/09/09 00:35:05;;;;;;;11.68;5.55;;;19.70;91.20;;;;;;4975185;28;20031;-67
2022/09/09 00:37:33;;;;;;;8.35;5.38;;;19.70;91.30;;;;;;4986349;28;20046;-67
2022/09/09 00:40:02;;;;;;;15.38;6.00;;;19.70;91.20;;;;;;4960111;28;20031;-67
2022/09/09 00:42:44;;;;;;;15.52;6.50;;;19.70;91.10;;;;;;4976357;28;20469;-66
2022/09/09 00:45:28;;;;;;;14.95;5.72;;;19.70;91.10;;;;;;4963594;28;20434;-67
2022/09/09 00:47:54;;;;;;;10.93;6.82;;;19.70;91.20;;;;;;4953594;28;20031;-66
2022/09/09 00:50:44;;;;;;;8.43;5.45;;;19.70;91.20;;;;;;4984384;28;20030;-66
2022/09/09 00:53:27;;;;;;;11.82;5.72;;;19.70;91.20;;;;;;4969460;28;20604;-66
2022/09/09 00:56:14;;;;;;;12.52;5.78;;;19.60;91.20;;;;;;4978777;28;20042;-67
2022/09/09 00:59:11;;;;;;;9.43;6.18;;;19.60;91.20;;;;;;4974471;28;20458;-66
2022/09/09 01:01:39;;;;;;;12.57;6.75;;;19.50;91.20;;;;;;4956970;28;20416;-66
2022/09/09 01:04:18;;;;;;;16.58;6.32;;;19.50;91.20;;;;;;4984648;28;20043;-68
2022/09/09 01:06:52;;;;;;;15.90;7.00;;;19.50;91.30;;;;;;4964840;28;20049;-68
2022/09/09 01:09:23;;;;;;;12.80;6.43;;;19.50;91.30;;;;;;4963500;28;20360;-68
2022/09/09 01:12:02;;;;;;;10.55;6.40;;;19.50;91.30;;;;;;4974058;28;20097;-68
2022/09/09 01:14:34;;;;;;;10.98;5.78;;;19.40;91.20;;;;;;4959488;28;20038;-68
2022/09/09 01:17:21;;;;;;;19.10;6.32;;;19.40;91.20;;;;;;4956712;28;20037;-68
2022/09/09 01:20:25;;;;;;;10.88;5.85;;;19.40;91.30;;;;;;4963711;28;20426;-68
2022/09/09 01:23:21;;;;;;;18.10;6.60;;;19.40;91.30;;;;;;4959613;28;20387;-68
2022/09/09 01:26:14;;;;;;;9.73;5.65;;;19.40;91.10;;;;;;4964910;28;20023;-68
2022/09/09 01:28:46;;;;;;;10.00;6.60;;;19.40;91.00;;;;;;4973447;28;20074;-68
2022/09/09 01:31:20;;;;;;;9.40;5.30;;;19.30;91.00;;;;;;4958397;28;20509;-68
2022/09/09 01:33:49;;;;;;;13.63;5.82;;;19.30;91.00;;;;;;4971806;28;20091;-68
2022/09/09 01:36:56;;;;;;;10.73;5.95;;;19.20;90.90;;;;;;4948136;28;20233;-68
2022/09/09 01:39:22;;;;;;;13.23;5.35;;;19.30;91.10;;;;;;4971433;28;20026;-68
2022/09/09 01:41:59;;;;;;;11.77;5.50;;;19.20;91.10;;;;;;4976797;28;20027;-68
2022/09/09 01:44:27;;;;;;;11.43;6.00;;;19.20;91.10;;;;;;4966985;28;20046;-68
2022/09/09 01:46:52;;;;;;;10.30;5.80;;;19.20;91.20;;;;;;4974561;28;20489;-68
2022/09/09 01:49:21;;;;;;;9.43;5.50;;;19.20;91.10;;;;;;4974782;28;20066;-68
2022/09/09 01:51:50;;;;;;;7.13;5.07;;;19.20;91.20;;;;;;4984992;28;20113;-68
2022/09/09 01:54:17;;;;;;;14.95;5.65;;;19.10;91.10;;;;;;4953611;28;21465;-68
2022/09/09 01:56:51;;;;;;;15.52;5.05;;;19.20;91.10;;;;;;4973414;28;20027;-67
2022/09/09 02:00:06;;;;;;;11.57;5.75;;;19.10;91.10;;;;;;4957747;28;20038;-67
2022/09/09 02:02:54;;;;;;;16.85;5.78;;;19.20;91.10;;;;;;4962723;28;20027;-67
2022/09/09 02:05:42;;;;;;;9.15;5.97;;;19.10;91.00;;;;;;4952776;28;20471;-67
2022/09/09 02:08:24;;;;;;;9.25;5.15;;;19.10;91.00;;;;;;4968905;28;20053;-67
2022/09/09 02:11:05;;;;;;;9.10;5.63;;;19.00;91.00;;;;;;4968309;28;20034;-67
2022/09/09 02:13:39;;;;;;;10.45;5.60;;;19.00;91.00;;;;;;4957017;28;20590;-67
2022/09/09 02:16:21;;;;;;;9.93;5.43;;;19.00;91.00;;;;;;4968697;28;20367;-67
2022/09/09 02:19:12;;;;;;;9.63;5.45;;;19.00;90.90;;;;;;4963760;28;20031;-67
2022/09/09 02:22:00;;;;;;;14.10;4.65;;;18.90;90.90;;;;;;4961840;28;20030;-67
2022/09/09 02:24:29;;;;;;;7.38;4.97;;;18.90;90.90;;;;;;4955249;28;20445;-67
2022/09/09 02:27:08;;;;;;;10.38;4.75;;;18.90;90.90;;;;;;4973904;28;20034;-67
2022/09/09 02:29:40;;;;;;;11.98;4.85;;;18.90;90.80;;;;;;4964850;28;20049;-67
2022/09/09 02:32:15;;;;;;;9.63;4.78;;;18.90;90.90;;;;;;4972530;28;20027;-67
2022/09/09 02:34:49;;;;;;;7.85;4.78;;;18.80;90.80;;;;;;4971171;28;20034;-67
2022/09/09 02:37:18;;;;;;;6.95;4.63;;;18.80;90.70;;;;;;4968053;28;20130;-67
2022/09/09 02:39:48;;;;;;;10.95;4.75;;;18.80;90.60;;;;;;4968391;28;20501;-67
2022/09/09 02:42:17;;;;;;;16.77;5.10;;;18.80;90.40;;;;;;4970167;28;20035;-67
2022/09/09 02:44:44;;;;;;;12.07;5.40;;;18.70;90.30;;;;;;4957904;28;20044;-67
2022/09/09 02:47:22;;;;;;;8.75;4.90;;;18.70;90.10;;;;;;4976471;28;20094;-67
2022/09/09 02:49:53;;;;;;;10.48;5.70;;;18.70;90.20;;;;;;4959234;28;20110;-67
2022/09/09 02:52:35;;;;;;;9.57;5.82;;;18.70;90.10;;;;;;4973065;28;20030;-67
2022/09/09 02:55:08;;;;;;;7.85;5.20;;;18.70;90.10;;;;;;4958139;28;20033;-67
2022/09/09 02:57:35;;;;;;;10.15;4.97;;;18.60;90.00;;;;;;4964864;28;20010;-67
2022/09/09 03:00:01;;;;;;;8.18;4.88;;;18.60;89.70;;;;;;4936545;29;20053;-67
2022/09/09 03:02:31;;;;;;;12.40;4.97;;;18.60;89.50;;;;;;4967329;28;20038;-67
2022/09/09 03:05:02;;;;;;;9.15;4.70;;;18.50;89.70;;;;;;4945156;28;20126;-67
2022/09/09 03:07:28;;;;;;;7.15;3.55;;;18.50;89.40;;;;;;4955997;28;20154;-67
2022/09/09 03:09:54;;;;;;;10.73;4.43;;;18.50;89.10;;;;;;4967417;28;20126;-67
2022/09/09 03:12:23;;;;;;;9.95;4.60;;;18.40;89.00;;;;;;4961891;28;20078;-67
2022/09/09 03:14:49;;;;;;;8.90;5.10;;;18.40;89.10;;;;;;4989253;28;20030;-67
2022/09/09 03:17:15;;;;;;;10.68;4.00;;;18.40;89.20;;;;;;4982813;28;20031;-67
2022/09/09 03:19:49;;;;;;;7.20;4.38;;;18.40;88.80;;;;;;4969475;28;20117;-67
2022/09/09 03:22:15;;;;;;;10.82;4.43;;;18.40;89.10;;;;;;4964505;28;20034;-67
2022/09/09 03:24:43;;;;;;;11.10;4.93;;;18.40;89.10;;;;;;4966385;28;20030;-67
2022/09/09 03:27:09;;;;;;;7.63;4.45;;;18.30;89.30;;;;;;4965961;28;20434;-67
2022/09/09 03:29:37;;;;;;;14.40;4.93;;;18.30;89.30;;;;;;4973402;28;20077;-67
2022/09/09 03:32:06;;;;;;;9.50;4.65;;;18.30;89.60;;;;;;4959354;28;20027;-67
2022/09/09 03:34:32;;;;;;;7.72;4.18;;;18.30;89.80;;;;;;4963467;28;20109;-67
2022/09/09 03:36:58;;;;;;;11.00;4.25;;;18.30;89.60;;;;;;4970704;28;20029;-68
2022/09/09 03:39:25;;;;;;;10.82;5.35;;;18.30;89.50;;;;;;4973573;28;20026;-67
2022/09/09 03:41:50;;;;;;;9.32;4.57;;;18.30;89.80;;;;;;4975322;28;20027;-67
2022/09/09 03:44:17;;;;;;;10.15;4.28;;;18.30;89.80;;;;;;4958218;28;20046;-67
2022/09/09 03:46:43;;;;;;;7.65;4.45;;;18.20;89.80;;;;;;4968117;28;20022;-67
2022/09/09 03:49:10;;;;;;;12.30;5.10;;;18.20;89.90;;;;;;4975589;28;20022;-67
2022/09/09 03:51:36;;;;;;;12.40;4.95;;;18.20;90.00;;;;;;4965933;28;20042;-67
2022/09/09 03:54:04;;;;;;;10.75;4.13;;;18.20;90.00;;;;;;4957149;28;20030;-67
2022/09/09 03:56:31;;;;;;;7.28;4.57;;;18.20;90.00;;;;;;4950363;28;20034;-67
2022/09/09 03:58:57;;;;;;;8.82;4.78;;;18.20;90.10;;;;;;4971721;28;20077;-67
2022/09/09 04:01:24;;;;;;;12.48;4.97;;;18.20;90.10;;;;;;4971731;28;20382;-67
2022/09/09 04:03:50;;;;;;;8.95;4.40;;;18.20;90.20;;;;;;4981970;28;20043;-67
2022/09/09 04:06:17;;;;;;;9.07;5.10;;;18.20;90.30;;;;;;4972060;28;20034;-67
2022/09/09 04:08:52;;;;;;;10.25;4.65;;;18.20;90.30;;;;;;4965557;28;20042;-67
2022/09/09 04:11:19;;;;;;;7.85;3.83;;;18.30;90.30;;;;;;4974211;28;20027;-67
2022/09/09 04:13:49;;;;;;;10.88;4.47;;;18.30;90.10;;;;;;4963682;28;20577;-67
2022/09/09 04:16:15;;;;;;;7.47;4.13;;;18.30;90.20;;;;;;4969372;28;20027;-67
2022/09/09 04:18:42;;;;;;;7.38;3.17;;;18.30;90.10;;;;;;4958554;28;20500;-67
2022/09/09 04:21:09;;;;;;;9.20;3.60;;;18.30;90.10;;;;;;4970685;28;20057;-68
2022/09/09 04:23:35;;;;;;;11.27;3.83;;;18.20;90.20;;;;;;4984752;28;20125;-67
2022/09/09 04:26:02;;;;;;;7.70;2.90;;;18.20;90.30;;;;;;4975939;28;20026;-69
2022/09/09 04:28:31;;;;;;;4.75;3.03;;;18.30;90.40;;;;;;4958843;28;20043;-68
2022/09/09 04:31:05;;;;;;;6.57;3.03;;;18.30;90.40;;;;;;4944809;28;20393;-67
2022/09/09 04:33:31;;;;;;;5.93;3.03;;;18.30;90.50;;;;;;4977761;28;20041;-67
2022/09/09 04:35:57;;;;;;;8.48;3.28;;;18.20;90.40;;;;;;4958302;28;20023;-68
2022/09/09 04:38:25;;;;;;;8.20;3.33;;;18.30;90.60;;;;;;4958302;28;20129;-68
2022/09/09 04:40:53;;;;;;;5.50;3.00;;;18.30;90.60;;;;;;4972374;28;20030;-68
2022/09/09 04:43:20;;;;;;;8.73;3.53;;;18.30;90.60;;;;;;4972395;28;20486;-69
2022/09/09 04:45:51;;;;;;;5.75;3.17;;;18.30;90.90;;;;;;4974328;28;20117;-67
2022/09/09 04:48:25;;;;;;;5.70;2.90;;;18.30;91.10;;;;;;4973887;28;20041;-68
2022/09/09 04:50:58;;;;;;;6.60;2.60;;;18.30;91.00;;;;;;4971291;28;20027;-69
2022/09/09 04:53:25;;;;;;;12.40;2.83;;;18.40;90.60;;;;;;4968016;28;20030;-67
2022/09/09 04:56:03;;;;;;;6.75;2.10;;;18.30;90.50;;;;;;4963037;28;20117;-67
2022/09/09 04:58:31;;;;;;;8.07;1.90;;;18.30;90.40;;;;;;4963465;28;20064;-67
2022/09/09 05:01:08;;;;;;;4.70;1.63;;;18.30;90.30;;;;;;4972867;28;20027;-67
2022/09/09 05:03:35;;;;;;;1.00;0.70;;;18.30;90.40;;;;;;4968539;28;20035;-67
2022/09/09 05:06:12;;;;;;;7.35;1.35;;;18.30;90.00;;;;;;4971812;28;20058;-67
2022/09/09 05:08:38;;;;;;;7.65;1.83;;;18.30;90.10;;;;;;4948946;28;20127;-67
2022/09/09 05:11:13;;;;;;;5.40;1.85;;;18.30;90.20;;;;;;4948068;29;20032;-67
2022/09/09 05:13:40;;;;;;;3.85;1.67;;;18.30;90.40;;;;;;4950210;29;20611;-67
2022/09/09 05:16:06;;;;;;;10.40;2.30;;;18.20;90.40;;;;;;4944734;29;20035;-67
2022/09/09 05:18:32;;;;;;;4.07;1.85;;;18.30;90.70;;;;;;4940742;29;20047;-67
2022/09/09 05:21:00;;;;;;;7.65;2.33;;;18.30;90.90;;;;;;4948375;29;20058;-67
2022/09/09 05:23:26;;;;;;;8.07;1.92;;;18.30;91.20;;;;;;4941566;29;20043;-67
2022/09/09 05:25:57;;;;;;;6.15;1.80;;;18.30;90.90;;;;;;4939954;29;20023;-67
2022/09/09 05:28:25;;;;;;;5.30;1.85;;;18.40;90.60;;;;;;4940574;29;20062;-67
2022/09/09 05:31:04;;;;;;;5.32;2.30;;;18.40;90.50;;;;;;4937138;29;20487;-67
2022/09/09 05:33:33;;;;;;;8.88;1.80;;;18.40;90.70;;;;;;4939331;29;20023;-67
2022/09/09 05:36:01;;;;;;;3.33;1.88;;;18.40;90.30;;;;;;4940299;29;20122;-65
2022/09/09 05:38:27;;;;;;;8.40;2.67;;;18.40;90.40;;;;;;4940603;29;20110;-67
2022/09/09 05:40:55;;;;;;;4.30;2.20;;;18.40;90.40;;;;;;4939173;29;20513;-67
2022/09/09 05:43:21;;;;;;;5.15;2.83;;;18.40;90.40;;;;;;4944357;29;20179;-67
2022/09/09 05:45:48;;;;;;;5.55;2.40;;;18.30;90.50;;;;;;4949403;29;20117;-68
2022/09/09 05:48:15;;;;;;;5.07;2.85;;;18.40;90.40;;;;;;4947270;29;20035;-68
2022/09/09 05:50:42;;;;;;;5.55;3.10;;;18.40;90.60;;;;;;4947397;29;20027;-67
2022/09/09 05:53:09;;;;;;;12.10;2.63;;;18.40;90.80;;;;;;4944768;29;20019;-67
2022/09/09 05:55:35;;;;;;;5.18;2.45;;;18.40;90.60;;;;;;4939191;29;20078;-67
2022/09/09 05:58:04;;;;;;;4.97;3.10;;;18.40;90.40;;;;;;4951418;29;20419;-67
2022/09/09 06:00:31;;;;;;;5.38;3.00;;;18.40;90.50;;;;;;4944359;28;20479;-67
2022/09/09 06:02:57;;;;;;;5.72;2.65;;;18.40;90.60;;;;;;4940177;29;20024;-67
2022/09/09 06:05:23;;;;;;;5.85;3.42;;;18.40;90.40;;;;;;4924541;29;20373;-67
2022/09/09 06:07:52;;;;;;;5.68;3.30;;;18.40;90.60;;;;;;4936017;29;20130;-67
2022/09/09 06:10:21;;;;;;;7.03;3.80;;;18.40;90.60;;;;;;4952832;29;20043;-67
2022/09/09 06:12:46;;;;;;;5.15;3.30;;;18.40;90.60;;;;;;4953242;28;20023;-67
2022/09/09 06:15:12;;;;;;;5.25;3.05;;;18.40;90.60;;;;;;4940317;29;20079;-67
2022/09/09 06:17:38;;;;;;;5.43;3.05;;;18.40;90.30;;;;;;4942187;29;20027;-67
2022/09/09 06:20:05;;;;;;;5.55;3.40;;;18.40;90.30;;;;;;4919957;29;20038;-67
2022/09/09 06:22:32;;;;;;;7.50;3.53;;;18.40;90.50;;;;;;4931824;29;20032;-67
2022/09/09 06:24:57;;;;;;;7.30;3.47;;;18.40;90.60;;;;;;4920486;29;20078;-67
2022/09/09 06:27:23;;;;;;;9.40;4.35;;;18.40;90.60;;;;;;4932436;29;20490;-68
2022/09/09 06:29:48;;;;;;;7.03;3.65;;;18.40;90.80;;;;;;4934386;29;20395;-67
2022/09/09 06:32:15;;;;;;;8.93;4.65;;;18.40;90.90;;;;;;4944619;29;20038;-68
2022/09/09 06:34:41;;;;;;;5.63;4.05;;;18.40;91.20;;;;;;4938166;29;20027;-67
2022/09/09 06:37:08;;;;;;;14.50;4.65;;;18.50;91.10;;;;;;4951188;29;20027;-67
2022/09/09 06:39:41;;;;;;;11.02;4.35;;;18.50;91.10;;;;;;4950472;29;20078;-67
2022/09/09 06:42:08;;;;;;;5.30;3.50;;;18.50;90.90;;;;;;4927441;29;20799;-67
2022/09/09 06:44:56;;;;;;;6.15;3.67;;;18.50;90.70;;;;;;4934180;29;20082;-67
2022/09/09 06:47:35;;;;;;;6.72;3.88;;;18.50;90.60;;;;;;4945123;29;20030;-68
2022/09/09 06:50:02;;;;;;;7.15;4.00;;;18.50;90.80;;;;;;4921299;29;20036;-67
2022/09/09 06:52:31;;;;;;;8.50;4.38;;;18.50;90.90;;;;;;4949928;29;20031;-67
2022/09/09 06:54:59;;;;;;;9.48;4.30;;;18.60;91.10;;;;;;4952164;29;20502;-68
2022/09/09 06:57:25;;;;;;;10.30;4.25;;;18.60;91.20;;;;;;4950571;29;20027;-67
2022/09/09 06:59:51;;;;;;;9.10;5.35;;;18.60;91.30;;;;;;4951740;29;20039;-68
2022/09/09 07:02:16;;;;;;;6.50;3.85;;;18.60;91.80;;;;;;4950998;29;20024;-68
2022/09/09 07:04:43;;;;;;;7.18;3.95;;;18.70;92.00;;;;;;4943155;29;20395;-68
2022/09/09 07:07:09;;;;;;;6.55;4.75;;;18.70;91.90;;;;;;4964986;28;20066;-67
2022/09/09 07:09:36;;;;;;;17.35;4.55;;;18.80;92.00;;;;;;4962491;28;20109;-67
2022/09/09 07:12:02;;;;;;;7.22;3.65;;;18.80;91.70;;;;;;4973612;28;20059;-67
2022/09/09 07:14:33;;;;;;;6.10;3.80;;;18.80;91.50;;;;;;4964245;28;20092;-67
2022/09/09 07:17:03;;;;;;;9.93;4.43;;;18.80;91.70;;;;;;4961528;28;20019;-68
2022/09/09 07:19:35;;;;;;;13.18;6.13;;;18.80;91.60;;;;;;4962175;28;20035;-67
2022/09/09 07:22:03;;;;;;;7.57;3.97;;;18.80;91.60;;;;;;4973774;28;20478;-67
2022/09/09 07:24:30;;;;;;;7.97;4.20;;;18.90;91.10;;;;;;4964249;28;20054;-67
2022/09/09 07:26:55;;;;;;;6.43;4.07;;;18.90;91.30;;;;;;4995549;28;20608;-67
2022/09/09 07:29:21;;;;;;;7.25;4.28;;;18.90;91.30;;;;;;4979909;28;20114;-67
2022/09/09 07:31:48;;;;;;;10.02;3.88;;;18.90;91.30;;;;;;4958447;28;20031;-68
2022/09/09 07:34:18;;;;;;;5.93;3.83;;;18.90;91.40;;;;;;4973243;28;20093;-67
2022/09/09 07:36:45;;;;;;;10.73;4.30;;;19.00;91.60;;;;;;4961477;28;20433;-67
2022/09/09 07:39:13;;;;;;;6.55;4.40;;;18.90;91.70;;;;;;4959699;28;20062;-67
2022/09/09 07:41:46;;;;;;;10.95;3.78;;;19.00;92.00;;;;;;4973465;28;20022;-67
2022/09/09 07:44:21;;;;;;;9.82;3.60;;;19.00;91.60;;;;;;4960084;28;20074;-67
2022/09/09 07:46:49;;;;;;;6.90;3.92;;;19.10;91.50;;;;;;4967736;28;20034;-67
2022/09/09 07:49:19;;;;;;;9.98;4.10;;;19.10;91.60;;;;;;4964955;28;20394;-67
2022/09/09 07:51:47;;;;;;;8.05;4.03;;;19.10;91.40;;;;;;4939812;28;20031;-67
2022/09/09 07:54:19;;;;;;;8.18;4.18;;;19.20;91.70;;;;;;4967227;28;20076;-67
2022/09/09 07:56:47;;;;;;;6.10;3.58;;;19.20;91.80;;;;;;4974985;28;20363;-67
2022/09/09 07:59:13;;;;;;;7.30;3.85;;;19.20;91.80;;;;;;4973845;28;20034;-67
2022/09/09 08:01:47;;;;;;;11.07;4.00;;;19.30;91.70;;;;;;4968209;28;20122;-68
2022/09/09 08:04:19;;;;;;;8.27;4.07;;;19.30;91.90;;;;;;4970198;28;20034;-68
2022/09/09 08:06:53;;;;;;;5.82;3.90;;;19.30;91.90;;;;;;4968227;28;20086;-67
2022/09/09 08:09:20;;;;;;;9.88;4.25;;;19.30;91.90;;;;;;4933098;29;20641;-67
2022/09/09 08:11:48;;;;;;;6.88;4.13;;;19.30;91.90;;;;;;4918254;29;20063;-67
2022/09/09 08:14:14;;;;;;;6.18;4.43;;;19.40;91.90;;;;;;4949019;29;20432;-67
2022/09/09 08:16:44;;;;;;;6.05;3.78;;;19.40;91.70;;;;;;4948265;29;20028;-67
2022/09/09 08:19:12;;;;;;;7.45;4.57;;;19.40;91.80;;;;;;4951203;29;20040;-67
2022/09/09 08:21:40;;;;;;;7.68;3.92;;;19.40;92.20;;;;;;4939728;29;20035;-66
2022/09/09 08:24:08;;;;;;;6.38;3.53;;;19.50;92.40;;;;;;4938741;29;20040;-67
2022/09/09 08:26:43;;;;;;;6.97;4.43;;;19.50;92.20;;;;;;4948757;29;20082;-67
2022/09/09 08:29:12;;;;;;;7.47;4.65;;;19.50;92.50;;;;;;4942697;29;20066;-67
2022/09/09 08:31:44;;;;;;;6.68;3.92;;;19.50;92.40;;;;;;4948280;29;20023;-67
2022/09/09 08:34:11;;;;;;;9.82;4.55;;;19.60;92.30;;;;;;4935210;29;20134;-67
2022/09/09 08:36:42;;;;;;;5.80;3.88;;;19.60;92.70;;;;;;4939386;29;20024;-67
2022/09/09 08:39:09;;;;;;;7.50;3.05;;;19.70;93.10;;;;;;4935579;29;20078;-67
2022/09/09 08:42:21;;;;;;;8.00;3.72;;;19.70;93.00;;;;;;4937777;29;20031;-67
2022/09/09 08:45:09;;;;;;;6.53;3.97;;;19.70;92.80;;;;;;4916705;29;20051;-67
2022/09/09 08:47:45;;;;;;;6.88;3.15;;;19.80;93.00;;;;;;4934200;29;20028;-67
2022/09/09 08:50:24;;;;;;;7.72;3.13;;;19.90;92.50;;;;;;4944542;29;20158;-67
2022/09/09 08:53:03;;;;;;;6.38;2.80;;;19.90;92.10;;;;;;4934955;29;20031;-66
2022/09/09 08:55:55;;;;;;;10.45;3.03;;;19.90;92.20;;;;;;4938352;29;20035;-66
2022/09/09 08:58:31;;;;;;;9.07;3.55;;;19.90;91.80;;;;;;4939117;29;20476;-67
2022/09/09 09:01:20;;;;;;;8.27;3.80;;;19.90;92.20;;;;;;4939208;29;20237;-67
2022/09/09 09:04:27;;;;;;;5.00;3.00;;;20.00;92.40;;;;;;4925807;29;20045;-67
2022/09/09 09:07:49;;;;;;;5.50;3.17;;;20.00;92.30;;;;;;4936161;28;20042;-67
2022/09/09 09:10:36;;;;;;;6.45;2.83;;;20.00;92.20;;;;;;4896856;28;20080;-67
2022/09/09 09:13:03;;;;;;;5.75;2.88;;;20.00;92.30;;;;;;4974728;28;20495;-67
2022/09/09 09:15:36;;;;;;;8.05;2.72;;;20.10;92.30;;;;;;4956308;28;20026;-67
2022/09/09 09:18:04;;;;;;;8.05;2.97;;;20.10;91.20;;;;;;4955751;28;20382;-67
2022/09/09 09:20:41;;;;;;;6.22;3.20;;;20.10;91.40;;;;;;4959219;28;20117;-67
2022/09/09 09:23:38;;;;;;;5.70;2.90;;;20.00;91.80;;;;;;4948539;28;20034;-67
2022/09/09 09:26:09;;;;;;;9.50;3.03;;;20.10;91.90;;;;;;4968649;28;20031;-67
2022/09/09 09:28:36;;;;;;;7.28;2.97;;;20.10;91.60;;;;;;4972649;28;20031;-67
2022/09/09 09:31:10;;;;;;;9.93;2.80;;;20.20;91.40;;;;;;4961279;28;20045;-67
2022/09/09 09:33:48;;;;;;;4.32;2.83;;;20.20;91.70;;;;;;4967434;28;20124;-67
2022/09/09 09:36:15;;;;;;;7.68;2.72;;;20.30;91.70;;;;;;4956845;28;20371;-67
2022/09/09 09:38:57;;;;;;;11.20;2.80;;;20.30;91.60;;;;;;4957393;28;20026;-68
2022/09/09 09:41:35;;;;;;;5.03;2.90;;;20.40;91.30;;;;;;4957678;28;20030;-67
2022/09/09 09:44:02;;;;;;;7.00;2.80;;;20.40;91.30;;;;;;4957301;28;20557;-67
2022/09/09 09:46:28;;;;;;;5.00;2.50;;;20.40;91.00;;;;;;4959631;28;20047;-67
2022/09/09 09:49:05;;;;;;;7.60;2.53;;;20.40;90.70;;;;;;4951416;28;20134;-66
2022/09/09 09:51:33;;;;;;;8.07;3.45;;;20.40;91.00;;;;;;4957983;28;20494;-67
2022/09/09 09:54:18;;;;;;;7.30;3.20;;;20.40;91.10;;;;;;4969144;28;20026;-67
2022/09/09 09:56:49;;;;;;;8.25;2.60;;;20.40;91.20;;;;;;4946137;28;20033;-67
2022/09/09 09:59:32;;;;;;;8.15;2.97;;;20.40;90.50;;;;;;4959041;28;20027;-66
2022/09/09 10:02:14;;;;;;;10.50;2.70;;;20.40;90.60;;;;;;4946571;28;20027;-67
2022/09/09 10:04:41;;;;;;;14.35;2.95;;;20.40;90.90;;;;;;4958243;28;20039;-67
2022/09/09 10:07:17;;;;;;;7.55;1.83;;;20.40;91.00;;;;;;4971393;28;20101;-67
2022/09/09 10:09:43;;;;;;;5.05;2.47;;;20.40;91.00;;;;;;4962163;28;20034;-66
2022/09/09 10:12:33;;;;;;;5.90;2.17;;;20.40;91.10;;;;;;4972723;28;20058;-67
2022/09/09 10:15:19;;;;;;;6.45;2.85;;;20.50;91.10;;;;;;4983681;28;20026;-66
2022/09/09 10:17:57;;;;;;;6.60;2.15;;;20.60;91.00;;;;;;4973884;28;20122;-66
2022/09/09 10:20:34;;;;;;;9.82;2.63;;;20.60;91.10;;;;;;4977084;28;20486;-67
2022/09/09 10:23:41;;;;;;;3.63;1.30;;;20.60;91.40;;;;;;4973800;28;20030;-66
2022/09/09 10:26:40;;;;;;;3.65;1.98;;;20.70;91.00;;;;;;4973647;28;21124;-66
2022/09/09 10:29:26;;;;;;;5.70;2.33;;;20.70;90.70;;;;;;4958892;28;20494;-67
2022/09/09 10:32:11;;;;;;;8.90;2.08;;;20.70;90.80;;;;;;4973738;28;20065;-67
2022/09/09 10:34:49;;;;;;;8.68;2.63;;;20.80;90.90;;;;;;4972416;28;20031;-67
2022/09/09 10:37:30;;;;;;;3.10;1.25;;;20.80;90.80;;;;;;4973169;28;20121;-67
2022/09/09 10:40:26;;;;;;;5.57;1.90;;;20.80;90.60;;;;;;4973607;28;20033;-66
2022/09/09 10:43:00;;;;;;;6.45;1.92;;;20.90;90.70;;;;;;4972590;28;20043;-67
2022/09/09 10:46:06;;;;;;;8.88;1.95;;;20.90;90.70;;;;;;4972253;28;20587;-66
2022/09/09 10:48:53;;;;;;;5.47;1.67;;;20.90;90.60;;;;;;4970687;28;20030;-66
2022/09/09 10:51:35;;;;;;;8.32;2.63;;;21.00;90.50;;;;;;4992262;28;20043;-67
2022/09/09 10:54:39;;;;;;;12.48;2.67;;;21.00;90.60;;;;;;4966638;28;20026;-66
2022/09/09 10:57:13;;;;;;;12.98;2.00;;;21.00;90.50;;;;;;4972946;28;20371;-66
2022/09/09 10:59:47;;;;;;;3.88;1.45;;;21.00;90.70;;;;;;4973380;28;20046;-67
2022/09/09 11:02:26;;;;;;;5.55;1.70;;;21.00;90.70;;;;;;4973601;28;20035;-67
2022/09/09 11:05:40;;;;;;;7.45;1.73;;;21.10;90.90;;;;;;4975923;28;20069;-68
2022/09/09 11:08:11;;;;;;;;;;;21.10;90.80;;;;;;4953262;28;20508;-66
2022/09/09 11:11:07;;;;;;;5.53;1.48;;;21.10;90.40;;;;;;4987493;28;19934;-67
2022/09/09 11:13:51;;;;;;;6.10;1.55;;;21.20;90.60;;;;;;4978481;28;20074;-67
2022/09/09 11:16:21;;;;;;;;;;;21.10;90.60;;;;;;4983326;28;20035;-67
2022/09/09 11:18:47;;;;;;;16.17;1.77;;;21.20;90.80;;;;;;4982221;28;19910;-67
2022/09/09 11:21:27;;;;;;;6.15;1.50;;;21.10;90.90;;;;;;4978210;28;20066;-67
2022/09/09 11:24:05;;;;;;;4.43;1.63;;;21.10;90.90;;;;;;4972837;28;20090;-67
2022/09/09 11:26:45;;;;;;;5.05;1.23;;;21.20;91.00;;;;;;4956604;28;20549;-67
2022/09/09 11:29:14;;;;;;;1.30;0.70;;;21.20;90.80;;;;;;4985137;28;20528;-68
2022/09/09 11:32:13;;;;;;;11.27;2.38;;;21.30;90.90;;;;;;4965109;28;20082;-67
2022/09/09 11:35:14;;;;;;;1.13;0.45;;;21.30;90.80;;;;;;4977142;28;20381;-68
2022/09/09 11:38:05;;;;;;;5.35;1.50;;;21.40;90.80;;;;;;4966127;28;20037;-68
2022/09/09 11:40:32;;;;;;;0.75;0.55;;;21.40;90.80;;;;;;4966029;28;20066;-67
2022/09/09 11:43:23;;;;;;;1.00;0.55;;;21.40;91.20;;;;;;4958560;28;20031;-68
2022/09/09 11:45:55;;;;;;;1.05;0.80;;;21.40;90.90;;;;;;4976548;28;20042;-69
2022/09/09 11:48:48;;;;;;;4.65;0.93;;;21.50;90.90;;;;;;4973702;28;20038;-67
2022/09/09 11:51:19;;;;;;;5.30;1.27;;;21.50;90.80;;;;;;4959886;28;20042;-67
2022/09/09 11:54:12;;;;;;;3.33;1.08;;;21.60;90.70;;;;;;4960109;28;20035;-67
2022/09/09 11:56:41;;;;;;;5.80;1.43;;;21.60;90.40;;;;;;4956182;28;20510;-67
2022/09/09 11:59:25;;;;;;;11.00;1.45;;;21.70;90.50;;;;;;4974740;28;20113;-67
2022/09/09 12:02:14;;;;;;;1.30;0.90;;;21.80;90.30;;;;;;4978991;28;20031;-67
2022/09/09 12:05:08;;;;;;;4.20;1.35;;;21.90;90.30;;;;;;4985427;28;20075;-67
2022/09/09 12:07:57;;;;;;;3.28;1.50;;;22.00;90.10;;;;;;4982920;28;20080;-67
2022/09/09 12:10:32;;;;;;;6.85;1.13;;;22.10;90.00;;;;;;4987750;28;20379;-67
2022/09/09 12:13:19;;;;;;;3.00;1.20;;;22.20;90.10;;;;;;4980943;28;20478;-67
2022/09/09 12:15:51;;;;;;;4.43;1.02;;;22.20;90.00;;;;;;4974479;28;20038;-67
2022/09/09 12:18:42;;;;;;;10.97;1.50;;;22.30;90.00;;;;;;4986961;28;20026;-68
2022/09/09 12:21:25;;;;;;;3.25;0.93;;;22.30;90.10;;;;;;4988254;28;20027;-67
2022/09/09 12:24:01;;;;;;;3.30;0.82;;;22.40;90.40;;;;;;4983777;28;20120;-68
2022/09/09 12:26:53;;;;;;;3.75;0.75;;;22.40;90.20;;;;;;4979327;28;20452;-68
2022/09/09 12:29:29;;;;;;;4.28;1.50;;;22.50;90.10;;;;;;4980212;28;21209;-67
2022/09/09 12:32:18;;;;;;;3.45;1.25;;;22.50;90.00;;;;;;4991479;28;20030;-68
2022/09/09 12:34:44;;;;;;;8.40;1.88;;;22.60;89.80;;;;;;4985899;28;20037;-67
2022/09/09 12:37:34;;;;;;;6.05;1.55;;;22.70;90.00;;;;;;4991197;28;20370;-68
2022/09/09 12:40:02;;;;;;;4.88;1.55;;;22.70;90.00;;;;;;4975864;28;20030;-68
2022/09/09 12:42:28;;;;;;;4.05;0.88;;;22.70;90.00;;;;;;4986020;28;20023;-67
2022/09/09 12:45:03;;;;;;;8.13;1.30;;;22.80;90.30;;;;;;4981287;28;20050;-68
2022/09/09 12:47:43;;;;;;;5.97;1.25;;;22.80;90.10;;;;;;4980303;28;20035;-68
2022/09/09 12:50:18;;;;;;;2.65;0.85;;;22.80;90.00;;;;;;4981088;28;20026;-68
2022/09/09 12:52:49;;;;;;;3.05;0.93;;;22.80;90.20;;;;;;4974895;28;20027;-68
2022/09/09 12:55:31;;;;;;;4.78;1.10;;;22.80;89.40;;;;;;4978978;28;20478;-68
2022/09/09 12:57:59;;;;;;;5.45;0.70;;;22.90;90.00;;;;;;4979100;28;20394;-67
2022/09/09 13:00:26;;;;;;;1.00;0.55;;;22.90;90.00;;;;;;4989349;28;20065;-67
2022/09/09 13:02:58;;;;;;;4.18;1.20;;;23.00;90.30;;;;;;4984292;28;20045;-67
2022/09/09 13:05:34;;;;;;;5.77;1.33;;;23.00;89.70;;;;;;4980963;28;20046;-70
2022/09/09 13:08:05;;;;;;;12.98;1.95;;;23.10;90.00;;;;;;4987347;28;20050;-70
2022/09/09 13:10:35;;;;;;;9.23;1.63;;;23.10;90.10;;;;;;4983822;28;20390;-67
2022/09/09 13:13:02;;;;;;;3.88;1.25;;;23.20;90.30;;;;;;4963508;28;20494;-68
2022/09/09 13:15:29;;;;;;;2.72;0.77;;;23.20;90.20;;;;;;4986035;28;20038;-67
2022/09/09 13:18:00;;;;;;;6.68;1.15;;;23.30;90.30;;;;;;4973057;28;20390;-68
2022/09/09 13:20:27;;;;;;;0.68;0.68;;;23.20;89.20;;;;;;4982740;28;20042;-67
2022/09/09 13:22:54;;;;;;;4.28;1.20;;;23.20;89.80;;;;;;4973819;28;20106;-70
2022/09/09 13:25:30;;;;;;;2.92;0.85;;;23.30;89.50;;;;;;4991365;28;20053;-66